createdAt,value
2023-04-15T00:01:11.790Z,10.78
2023-04-15T00:03:39.459Z,10.85
2023-04-15T00:06:07.656Z,10.75
2023-04-15T00:08:35.147Z,10.77
2023-04-15T00:11:05.782Z,10.81
2023-04-15T00:13:34.066Z,10.74
2023-04-15T00:16:02.270Z,10.79
2023-04-15T00:18:31.605Z,11.07
2023-04-15T00:20:59.361Z,11.07
2023-04-15T00:23:26.854Z,11.02
2023-04-15T00:25:54.280Z,10.71
2023-04-15T00:28:21.757Z,10.98
2023-04-15T00:30:49.241Z,10.92
2023-04-15T00:33:17.682Z,10.84
2023-04-15T00:35:45.091Z,10.82
2023-04-15T00:38:12.527Z,10.75
2023-04-15T00:40:40.016Z,10.91
2023-04-15T00:43:07.478Z,10.64
2023-04-15T00:45:35.012Z,10.62
2023-04-15T00:48:02.605Z,10.70
2023-04-15T00:50:30.056Z,10.58
2023-04-15T00:52:57.473Z,10.43
2023-04-15T00:55:25.546Z,10.45
2023-04-15T00:57:53.233Z,10.51
2023-04-15T01:00:21.435Z,10.37
2023-04-15T01:02:48.984Z,10.29
2023-04-15T01:05:18.610Z,10.28
2023-04-15T01:07:46.069Z,10.31
2023-04-15T01:10:13.545Z,10.19
2023-04-15T01:12:41.239Z,10.13
2023-04-15T01:15:09.458Z,10.15
2023-04-15T01:17:37.335Z,10.09
2023-04-15T01:20:05.202Z,10.27
2023-04-15T01:22:34.433Z,10.16
2023-04-15T01:25:06.172Z,10.07
2023-04-15T01:27:34.211Z,10.14
2023-04-15T01:30:03.293Z,9.94
2023-04-15T01:32:30.991Z,10.05
2023-04-15T01:34:58.489Z,10.04
2023-04-15T01:37:26.060Z,10.18
2023-04-15T01:39:53.433Z,10.27
2023-04-15T01:42:22.588Z,9.94
2023-04-15T01:44:50.099Z,10.11
2023-04-15T01:47:17.634Z,9.82
2023-04-15T01:49:45.013Z,10.23
2023-04-15T01:52:12.454Z,10.05
2023-04-15T01:54:39.888Z,10.00
2023-04-15T01:57:07.342Z,10.01
2023-04-15T01:59:34.748Z,10.07
2023-04-15T02:02:02.375Z,10.05
2023-04-15T02:04:29.913Z,10.05
2023-04-15T02:06:57.752Z,9.89
2023-04-15T02:09:25.129Z,10.19
2023-04-15T02:11:53.629Z,9.82
2023-04-15T02:14:21.019Z,9.97
2023-04-15T02:16:48.501Z,10.01
2023-04-15T02:19:16.367Z,9.84
2023-04-15T02:21:43.768Z,9.98
2023-04-15T02:24:12.172Z,9.99
2023-04-15T02:26:39.557Z,9.90
2023-04-15T02:29:06.968Z,9.76
2023-04-15T02:31:40.459Z,9.85
2023-04-15T02:34:08.237Z,9.79
2023-04-15T02:36:35.716Z,9.90
2023-04-15T02:39:03.538Z,10.02
2023-04-15T02:41:31.186Z,9.75
2023-04-15T02:43:58.626Z,9.82
2023-04-15T02:46:27.379Z,9.67
2023-04-15T02:48:54.847Z,9.76
2023-04-15T02:51:23.040Z,9.67
2023-04-15T02:53:50.932Z,9.37
2023-04-15T02:56:19.449Z,9.44
2023-04-15T02:58:46.907Z,9.62
2023-04-15T03:01:14.827Z,9.53
2023-04-15T03:03:42.465Z,9.43
2023-04-15T03:06:09.973Z,9.30
2023-04-15T03:08:37.411Z,9.33
2023-04-15T03:11:05.276Z,9.39
2023-04-15T03:13:32.740Z,9.32
2023-04-15T03:16:00.219Z,9.37
2023-04-15T03:18:28.882Z,9.44
2023-04-15T03:20:56.322Z,9.13
2023-04-15T03:23:23.698Z,9.14
2023-04-15T03:25:51.236Z,9.15
2023-04-15T03:28:18.658Z,9.19
2023-04-15T03:30:46.263Z,9.04
2023-04-15T03:33:13.648Z,9.16
2023-04-15T03:35:41.259Z,9.15
2023-04-15T03:38:08.714Z,8.90
2023-04-15T03:40:36.229Z,8.76
2023-04-15T03:43:03.661Z,8.94
2023-04-15T03:45:31.426Z,8.90
2023-04-15T03:48:15.524Z,8.70
2023-04-15T03:50:44.467Z,8.84
2023-04-15T03:53:11.972Z,8.62
2023-04-15T03:55:39.395Z,8.79
2023-04-15T03:58:06.774Z,8.56
2023-04-15T04:00:34.165Z,8.58
2023-04-15T04:03:01.849Z,8.69
2023-04-15T04:05:29.381Z,8.68
2023-04-15T04:07:56.847Z,8.54
2023-04-15T04:10:24.465Z,8.53
2023-04-15T04:12:51.988Z,8.60
2023-04-15T04:15:19.381Z,8.45
2023-04-15T04:17:46.835Z,8.25
2023-04-15T04:20:14.342Z,8.24
2023-04-15T04:22:41.882Z,8.36
2023-04-15T04:25:10.103Z,8.19
2023-04-15T04:27:37.613Z,8.30
2023-04-15T04:30:05.758Z,8.28
2023-04-15T04:32:33.317Z,8.19
2023-04-15T04:35:00.982Z,8.17
2023-04-15T04:37:28.397Z,8.07
2023-04-15T04:39:56.233Z,8.07
2023-04-15T04:42:23.693Z,8.07
2023-04-15T04:44:51.530Z,8.03
2023-04-15T04:47:18.978Z,8.14
2023-04-15T04:49:46.429Z,7.95
2023-04-15T04:52:13.864Z,8.07
2023-04-15T04:54:41.296Z,7.93
2023-04-15T04:57:08.770Z,7.87
2023-04-15T04:59:36.593Z,7.84
2023-04-15T05:02:04.398Z,7.99
2023-04-15T05:04:32.180Z,7.78
2023-04-15T05:07:00.332Z,7.97
2023-04-15T05:09:28.218Z,7.88
2023-04-15T05:11:56.129Z,8.09
2023-04-15T05:14:23.547Z,8.05
2023-04-15T05:16:50.963Z,8.13
2023-04-15T05:19:18.367Z,7.87
2023-04-15T05:21:45.969Z,8.03
2023-04-15T05:24:13.378Z,8.20
2023-04-15T05:26:42.439Z,7.81
2023-04-15T05:29:10.385Z,8.00
2023-04-15T05:31:37.965Z,8.12
2023-04-15T05:34:05.528Z,7.96
2023-04-15T05:36:32.924Z,8.10
2023-04-15T05:39:00.879Z,8.27
2023-04-15T05:41:28.489Z,8.06
2023-04-15T05:43:56.186Z,8.03
2023-04-15T05:46:23.685Z,8.10
2023-04-15T05:48:51.549Z,7.93
2023-04-15T05:51:18.938Z,7.85
2023-04-15T05:53:47.023Z,8.27
2023-04-15T05:56:14.485Z,8.36
2023-04-15T05:58:42.162Z,8.48
2023-04-15T06:01:09.611Z,8.66
2023-04-15T06:03:37.108Z,8.90
2023-04-15T06:06:04.604Z,8.76
2023-04-15T06:08:32.206Z,8.91
2023-04-15T06:10:59.827Z,8.76
2023-04-15T06:13:27.443Z,8.63
2023-04-15T06:15:54.875Z,8.64
2023-04-15T06:18:22.366Z,8.99
2023-04-15T06:20:50.199Z,8.61
2023-04-15T06:23:17.601Z,9.01
2023-04-15T06:25:45.035Z,8.99
2023-04-15T06:28:12.508Z,9.26
2023-04-15T06:30:40.182Z,9.19
2023-04-15T06:33:07.633Z,8.93
2023-04-15T06:35:35.050Z,9.26
2023-04-15T06:38:02.457Z,9.63
2023-04-15T06:40:29.914Z,9.37
2023-04-15T06:42:57.698Z,9.74
2023-04-15T06:45:25.233Z,10.10
2023-04-15T06:47:52.726Z,9.98
2023-04-15T06:50:20.205Z,10.19
2023-04-15T06:52:47.700Z,10.13
2023-04-15T06:55:15.462Z,9.95
2023-04-15T06:57:42.954Z,10.22
2023-04-15T07:00:12.136Z,10.00
2023-04-15T07:02:39.817Z,10.14
2023-04-15T07:05:07.530Z,10.42
2023-04-15T07:07:35.035Z,10.39
2023-04-15T07:10:03.394Z,10.42
2023-04-15T07:12:31.026Z,10.74
2023-04-15T07:14:58.405Z,10.60
2023-04-15T07:17:25.787Z,10.92
2023-04-15T07:19:53.186Z,10.97
2023-04-15T07:22:20.589Z,11.13
2023-04-15T07:24:47.966Z,11.30
2023-04-15T07:27:15.697Z,11.33
2023-04-15T07:29:43.103Z,11.59
2023-04-15T07:32:11.299Z,11.31
2023-04-15T07:34:38.748Z,11.60
2023-04-15T07:37:06.111Z,11.51
2023-04-15T07:39:33.495Z,11.44
2023-04-15T07:42:00.959Z,11.82
2023-04-15T07:44:28.477Z,11.78
2023-04-15T07:46:56.047Z,11.44
2023-04-15T07:49:23.775Z,11.81
2023-04-15T07:51:51.515Z,12.09
2023-04-15T07:54:18.946Z,12.06
2023-04-15T07:56:46.322Z,12.23
2023-04-15T07:59:15.352Z,12.12
2023-04-15T08:01:42.933Z,13.06
2023-04-15T08:04:10.860Z,12.56
2023-04-15T08:06:39.917Z,12.74
2023-04-15T08:09:08.147Z,12.36
2023-04-15T08:11:36.507Z,12.42
2023-04-15T08:14:03.999Z,12.56
2023-04-15T08:16:31.919Z,12.77
2023-04-15T08:18:59.753Z,13.30
2023-04-15T08:21:27.735Z,12.89
2023-04-15T08:23:55.441Z,13.03
2023-04-15T08:26:23.214Z,13.31
2023-04-15T08:28:51.209Z,13.30
2023-04-15T08:31:19.261Z,13.23
2023-04-15T08:33:47.101Z,13.72
2023-04-15T08:36:14.938Z,13.63
2023-04-15T08:38:42.390Z,13.13
2023-04-15T08:41:20.118Z,13.50
2023-04-15T08:44:07.791Z,13.54
2023-04-15T08:46:35.624Z,13.50
2023-04-15T08:49:05.401Z,13.44
2023-04-15T08:51:33.622Z,13.68
2023-04-15T08:54:01.520Z,14.71
2023-04-15T08:56:29.240Z,14.15
2023-04-15T08:58:56.762Z,14.64
2023-04-15T09:01:24.279Z,14.71
2023-04-15T09:03:52.154Z,14.86
2023-04-15T09:06:19.780Z,14.61
2023-04-15T09:08:47.400Z,14.73
2023-04-15T09:11:14.790Z,14.81
2023-04-15T09:13:42.688Z,14.96
2023-04-15T09:16:10.724Z,14.51
2023-04-15T09:18:39.637Z,14.39
2023-04-15T09:21:08.956Z,14.92
2023-04-15T09:23:36.985Z,15.48
2023-04-15T09:26:04.749Z,15.33
2023-04-15T09:28:32.218Z,14.89
2023-04-15T09:31:00.372Z,15.24
2023-04-15T09:33:28.788Z,14.21
2023-04-15T09:35:59.374Z,14.55
2023-04-15T09:38:26.890Z,14.14
2023-04-15T09:40:54.412Z,14.17
2023-04-15T09:43:22.099Z,14.61
2023-04-15T09:45:53.726Z,14.50
2023-04-15T09:48:22.048Z,14.79
2023-04-15T09:50:50.321Z,14.81
2023-04-15T09:53:19.116Z,15.31
2023-04-15T09:55:47.304Z,14.57
2023-04-15T09:58:27.962Z,15.01
2023-04-15T10:00:57.281Z,15.18
2023-04-15T10:03:26.574Z,16.18
2023-04-15T10:05:55.842Z,15.20
2023-04-15T10:08:25.067Z,15.38
2023-04-15T10:10:52.884Z,15.06
2023-04-15T10:13:22.423Z,15.05
2023-04-15T10:15:56.993Z,14.97
2023-04-15T10:18:26.231Z,15.50
2023-04-15T10:20:54.007Z,15.47
2023-04-15T10:23:21.863Z,16.05
2023-04-15T10:25:50.670Z,15.32
2023-04-15T10:28:18.354Z,15.34
2023-04-15T10:30:46.115Z,15.84
2023-04-15T10:33:14.192Z,16.36
2023-04-15T10:35:41.990Z,16.20
2023-04-15T10:38:28.484Z,16.77
2023-04-15T10:41:12.907Z,16.03
2023-04-15T10:43:40.326Z,16.50
2023-04-15T10:46:07.737Z,16.49
2023-04-15T10:48:35.166Z,16.31
2023-04-15T10:51:03.875Z,16.53
2023-04-15T10:53:32.956Z,16.42
2023-04-15T10:56:00.618Z,15.90
2023-04-15T10:58:41.997Z,16.02
2023-04-15T11:01:09.430Z,15.79
2023-04-15T11:03:41.046Z,16.07
2023-04-15T11:06:08.774Z,16.44
2023-04-15T11:08:55.947Z,16.29
2023-04-15T11:11:23.692Z,16.24
2023-04-15T11:13:52.429Z,16.72
2023-04-15T11:16:19.950Z,17.28
2023-04-15T11:18:56.826Z,16.53
2023-04-15T11:21:25.990Z,16.43
2023-04-15T11:23:53.473Z,16.67
2023-04-15T11:26:20.910Z,16.96
2023-04-15T11:28:48.403Z,16.93
2023-04-15T11:31:17.795Z,16.68
2023-04-15T11:33:47.052Z,16.49
2023-04-15T11:36:14.811Z,16.20
2023-04-15T11:38:46.589Z,16.52
2023-04-15T11:41:14.383Z,16.59
2023-04-15T11:43:42.621Z,15.86
2023-04-15T11:46:10.116Z,16.00
2023-04-15T11:48:37.616Z,16.46
2023-04-15T11:51:06.450Z,15.93
2023-04-15T11:53:40.977Z,15.80
2023-04-15T11:56:09.324Z,16.26
2023-04-15T11:58:38.491Z,16.44
2023-04-15T12:01:07.239Z,16.38
2023-04-15T12:03:39.424Z,16.63
2023-04-15T12:06:20.444Z,16.49
2023-04-15T12:08:57.232Z,16.11
2023-04-15T12:11:27.618Z,16.19
2023-04-15T12:13:56.118Z,16.00
2023-04-15T12:16:23.902Z,15.76
2023-04-15T12:18:56.127Z,16.05
2023-04-15T12:21:24.712Z,16.51
2023-04-15T12:23:56.916Z,16.42
2023-04-15T12:26:32.784Z,16.35
2023-04-15T12:29:03.994Z,16.71
2023-04-15T12:31:31.506Z,16.58
2023-04-15T12:34:00.614Z,17.11
2023-04-15T12:36:28.499Z,16.94
2023-04-15T12:38:55.988Z,16.53
2023-04-15T12:41:24.449Z,16.90
2023-04-15T12:43:52.293Z,16.08
2023-04-15T12:46:20.375Z,15.81
2023-04-15T12:48:48.054Z,16.27
2023-04-15T12:51:15.621Z,16.43
2023-04-15T12:53:43.042Z,16.70
2023-04-15T12:56:10.440Z,16.26
2023-04-15T12:58:37.812Z,16.84
2023-04-15T13:01:05.274Z,16.86
2023-04-15T13:03:33.022Z,17.25
2023-04-15T13:06:02.191Z,16.09
2023-04-15T13:08:29.634Z,16.42
2023-04-15T13:10:57.115Z,16.28
2023-04-15T13:13:24.539Z,16.64
2023-04-15T13:15:52.013Z,16.87
2023-04-15T13:18:19.463Z,16.67
2023-04-15T13:20:47.210Z,16.04
2023-04-15T13:23:14.789Z,15.82
2023-04-15T13:25:42.413Z,15.24
2023-04-15T13:28:11.994Z,15.14
2023-04-15T13:30:39.722Z,15.20
2023-04-15T13:33:07.399Z,15.63
2023-04-15T13:35:34.908Z,16.03
2023-04-15T13:38:02.370Z,15.21
2023-04-15T13:40:29.813Z,15.36
2023-04-15T13:42:58.556Z,15.44
2023-04-15T13:45:25.984Z,15.14
2023-04-15T13:47:53.885Z,14.83
2023-04-15T13:50:21.413Z,15.04
2023-04-15T13:52:48.824Z,15.19
2023-04-15T13:55:22.389Z,15.04
2023-04-15T13:57:51.870Z,15.57
2023-04-15T14:00:19.381Z,15.43
2023-04-15T14:02:47.022Z,15.03
2023-04-15T14:05:14.581Z,15.04
2023-04-15T14:07:42.074Z,14.52
2023-04-15T14:10:09.667Z,14.28
2023-04-15T14:12:37.114Z,14.63
2023-04-15T14:15:05.089Z,15.03
2023-04-15T14:17:34.143Z,14.53
2023-04-15T14:20:01.656Z,14.84
2023-04-15T14:22:29.184Z,14.33
2023-04-15T14:24:56.653Z,14.07
2023-04-15T14:27:24.048Z,14.50
2023-04-15T14:29:51.437Z,14.57
2023-04-15T14:32:18.866Z,14.20
2023-04-15T14:34:46.236Z,13.84
2023-04-15T14:37:13.689Z,13.99
2023-04-15T14:39:41.175Z,13.72
2023-04-15T14:42:08.620Z,13.98
2023-04-15T14:44:36.322Z,13.61
2023-04-15T14:47:03.740Z,13.18
2023-04-15T14:49:31.510Z,13.61
2023-04-15T14:51:58.889Z,13.09
2023-04-15T14:54:26.358Z,13.53
2023-04-15T14:56:53.816Z,13.34
2023-04-15T14:59:21.233Z,13.48
2023-04-15T15:01:49.106Z,13.60
2023-04-15T15:04:16.761Z,13.48
2023-04-15T15:06:44.196Z,13.32
2023-04-15T15:09:11.619Z,13.25
2023-04-15T15:11:39.024Z,13.08
2023-04-15T15:14:06.524Z,13.19
2023-04-15T15:16:34.138Z,12.95
2023-04-15T15:19:01.626Z,13.01
2023-04-15T15:21:29.049Z,13.03
2023-04-15T15:23:56.434Z,12.95
2023-04-15T15:26:24.297Z,13.09
2023-04-15T15:28:51.744Z,13.04
2023-04-15T15:31:19.157Z,12.84
2023-04-15T15:33:46.540Z,13.02
2023-04-15T15:36:13.995Z,13.17
2023-04-15T15:38:41.738Z,13.16
2023-04-15T15:41:09.242Z,12.99
2023-04-15T15:43:37.748Z,13.30
2023-04-15T15:46:05.440Z,12.33
2023-04-15T15:48:32.922Z,12.61
2023-04-15T15:51:00.351Z,12.82
2023-04-15T15:53:27.764Z,12.80
2023-04-15T15:55:55.179Z,12.36
2023-04-15T15:58:22.590Z,12.27
2023-04-15T16:00:50.089Z,12.27
2023-04-15T16:03:17.788Z,12.37
2023-04-15T16:05:46.124Z,12.40
2023-04-15T16:08:13.545Z,12.44
2023-04-15T16:10:41.227Z,12.36
2023-04-15T16:13:08.880Z,12.68
2023-04-15T16:15:36.316Z,12.08
2023-04-15T16:18:03.787Z,12.19
2023-04-15T16:20:31.382Z,12.30
2023-04-15T16:22:59.234Z,12.12
2023-04-15T16:25:26.668Z,12.27
2023-04-15T16:28:00.794Z,12.23
2023-04-15T16:30:33.445Z,12.06
2023-04-15T16:33:01.035Z,11.99
2023-04-15T16:35:28.529Z,11.80
2023-04-15T16:37:55.986Z,11.93
2023-04-15T16:40:23.382Z,11.76
2023-04-15T16:42:51.032Z,11.49
2023-04-15T16:45:18.527Z,11.63
2023-04-15T16:47:45.950Z,11.62
2023-04-15T16:50:13.438Z,11.71
2023-04-15T16:52:40.816Z,11.70
2023-04-15T16:55:08.359Z,12.11
2023-04-15T16:58:00.744Z,12.08
2023-04-15T17:00:23.310Z,12.14
2023-04-15T17:02:51.122Z,11.94
2023-04-15T17:05:18.630Z,11.83
2023-04-15T17:07:46.118Z,11.68
2023-04-15T17:10:14.251Z,11.78
2023-04-15T17:12:41.691Z,11.59
2023-04-15T17:15:09.526Z,11.43
2023-04-15T17:17:36.944Z,11.43
2023-04-15T17:20:04.631Z,11.46
2023-04-15T17:22:33.542Z,11.60
2023-04-15T17:25:01.011Z,11.55
2023-04-15T17:27:28.955Z,11.24
2023-04-15T17:29:56.391Z,11.29
2023-04-15T17:32:24.264Z,11.70
2023-04-15T17:34:51.707Z,11.35
2023-04-15T17:37:19.198Z,10.98
2023-04-15T17:39:46.666Z,10.98
2023-04-15T17:42:14.526Z,11.22
2023-04-15T17:44:42.029Z,11.23
2023-04-15T17:47:09.497Z,11.33
2023-04-15T17:49:37.872Z,11.08
2023-04-15T17:52:05.366Z,11.42
2023-04-15T17:54:33.129Z,11.34
2023-04-15T17:57:03.115Z,11.34
2023-04-15T17:59:30.835Z,11.29
2023-04-15T18:01:59.118Z,11.02
2023-04-15T18:04:26.970Z,10.94
2023-04-15T18:06:54.804Z,11.15
2023-04-15T18:09:22.163Z,11.12
2023-04-15T18:11:49.595Z,11.13
2023-04-15T18:14:30.693Z,10.96
2023-04-15T18:17:00.763Z,10.74
2023-04-15T18:19:28.295Z,10.90
2023-04-15T18:21:55.701Z,10.90
2023-04-15T18:24:23.318Z,11.21
2023-04-15T18:26:50.779Z,11.21
2023-04-15T18:29:18.519Z,11.09
2023-04-15T18:31:46.165Z,11.03
2023-04-15T18:34:13.800Z,10.98
2023-04-15T18:36:41.195Z,11.03
2023-04-15T18:39:08.631Z,11.11
2023-04-15T18:41:36.105Z,10.57
2023-04-15T18:44:03.544Z,10.83
2023-04-15T18:46:30.963Z,10.65
2023-04-15T18:48:58.424Z,10.67
2023-04-15T18:51:25.958Z,10.79
2023-04-15T18:53:53.444Z,10.46
2023-04-15T18:56:20.871Z,10.42
2023-04-15T18:59:27.106Z,11.03
2023-04-15T19:01:35.680Z,10.83
2023-04-15T19:04:03.346Z,10.52
2023-04-15T19:06:30.965Z,10.53
2023-04-15T19:08:58.566Z,10.36
2023-04-15T19:11:26.598Z,10.76
2023-04-15T19:13:54.319Z,10.67
2023-04-15T19:16:21.817Z,10.48
2023-04-15T19:18:49.265Z,10.33
2023-04-15T19:21:16.796Z,10.33
2023-04-15T19:23:44.511Z,10.52
2023-04-15T19:26:12.605Z,10.83
2023-04-15T19:28:40.091Z,10.63
2023-04-15T19:31:07.547Z,10.59
2023-04-15T19:33:35.318Z,10.51
2023-04-15T19:36:04.033Z,10.69
2023-04-15T19:38:31.782Z,10.38
2023-04-15T19:40:59.437Z,10.42
2023-04-15T19:43:27.201Z,10.56
2023-04-15T19:45:54.966Z,10.60
2023-04-15T19:48:23.403Z,10.46
2023-04-15T19:50:50.938Z,10.47
2023-04-15T19:53:18.428Z,10.72
2023-04-15T19:55:46.982Z,10.64
2023-04-15T19:58:14.369Z,10.30
2023-04-15T20:00:41.856Z,10.46
2023-04-15T20:03:09.458Z,10.51
2023-04-15T20:05:37.057Z,10.64
2023-04-15T20:08:04.543Z,10.48
2023-04-15T20:10:32.256Z,10.49
2023-04-15T20:12:59.812Z,10.49
2023-04-15T20:15:27.291Z,10.46
2023-04-15T20:17:54.925Z,10.39
2023-04-15T20:20:22.524Z,10.00
2023-04-15T20:22:49.994Z,10.14
2023-04-15T20:25:17.340Z,10.38
2023-04-15T20:27:45.164Z,10.51
2023-04-15T20:30:12.590Z,10.67
2023-04-15T20:32:39.970Z,10.15
2023-04-15T20:35:07.852Z,10.44
2023-04-15T20:37:36.217Z,10.37
2023-04-15T20:40:03.726Z,10.22
2023-04-15T20:42:34.555Z,10.33
2023-04-15T20:45:02.421Z,10.54
2023-04-15T20:47:30.256Z,10.26
2023-04-15T20:49:57.729Z,10.24
2023-04-15T20:52:25.076Z,10.29
2023-04-15T20:54:52.578Z,10.34
2023-04-15T20:57:20.461Z,10.27
2023-04-15T20:59:47.900Z,10.31
2023-04-15T21:02:15.637Z,10.17
2023-04-15T21:04:43.111Z,10.25
2023-04-15T21:07:10.735Z,10.22
2023-04-15T21:09:41.255Z,10.19
2023-04-15T21:12:08.717Z,10.19
2023-04-15T21:14:37.034Z,10.25
2023-04-15T21:17:09.269Z,10.14
2023-04-15T21:19:38.619Z,10.37
2023-04-15T21:22:06.284Z,10.30
2023-04-15T21:24:33.681Z,10.51
2023-04-15T21:27:01.933Z,10.26
2023-04-15T21:29:29.454Z,10.26
2023-04-15T21:31:56.977Z,10.57
2023-04-15T21:34:24.490Z,10.32
2023-04-15T21:36:51.910Z,10.48
2023-04-15T21:39:19.400Z,10.37
2023-04-15T21:41:47.161Z,10.53
2023-04-15T21:44:15.094Z,10.84
2023-04-15T21:46:45.982Z,10.72
2023-04-15T21:49:13.797Z,10.78
2023-04-15T21:51:41.264Z,10.94
2023-04-15T21:54:08.630Z,10.74
2023-04-15T21:56:36.783Z,10.67
2023-04-15T21:59:04.445Z,10.37
2023-04-15T22:01:32.162Z,10.55
2023-04-15T22:03:59.680Z,10.42
2023-04-15T22:06:27.263Z,10.37
2023-04-15T22:08:57.333Z,10.53
2023-04-15T22:11:27.854Z,10.56
2023-04-15T22:13:55.802Z,10.64
2023-04-15T22:16:23.242Z,10.67
2023-04-15T22:18:50.595Z,10.63
2023-04-15T22:21:18.142Z,10.55
2023-04-15T22:23:49.067Z,10.61
2023-04-15T22:26:16.492Z,10.83
2023-04-15T22:28:43.974Z,10.48
2023-04-15T22:31:11.423Z,10.77
2023-04-15T22:33:40.151Z,10.80
2023-04-15T22:36:07.514Z,10.70
2023-04-15T22:38:34.932Z,10.69
2023-04-15T22:41:02.353Z,10.59
2023-04-15T22:43:29.811Z,10.60
2023-04-15T22:45:57.276Z,10.67
2023-04-15T22:48:24.664Z,10.59
2023-04-15T22:50:52.095Z,10.79
2023-04-15T22:53:20.055Z,10.77
2023-04-15T22:55:47.845Z,10.81
2023-04-15T22:58:15.684Z,10.68
2023-04-15T23:00:43.222Z,10.83
2023-04-15T23:03:11.367Z,10.76
2023-04-15T23:05:40.085Z,10.64
2023-04-15T23:08:08.122Z,10.54
2023-04-15T23:10:35.507Z,10.59
2023-04-15T23:13:02.895Z,10.79
2023-04-15T23:15:30.318Z,10.64
2023-04-15T23:17:57.787Z,10.72
2023-04-15T23:20:25.272Z,10.58
2023-04-15T23:22:52.726Z,10.80
2023-04-15T23:25:22.190Z,10.76
2023-04-15T23:27:49.638Z,10.97
2023-04-15T23:30:17.053Z,10.83
2023-04-15T23:32:44.470Z,10.93
2023-04-15T23:35:12.024Z,10.72
2023-04-15T23:37:39.487Z,10.56
2023-04-15T23:40:07.298Z,10.44
2023-04-15T23:42:34.751Z,10.42
2023-04-15T23:45:02.108Z,10.51
2023-04-15T23:47:29.496Z,10.72
2023-04-15T23:49:56.897Z,10.75
2023-04-15T23:52:24.339Z,10.52
2023-04-15T23:54:51.770Z,10.56
2023-04-15T23:57:19.470Z,10.59
2023-04-15T23:59:46.975Z,10.84
